Time;durP1;ratioP1;P1;durP2;ratioP2;P2;SDS_P1;SDS_P2;PMS_P1;PMS_P2;Temp;Humidity;BMP_temperature;BMP_pressure;BME280_temperature;BME280_humidity;BME280_pressure;Samples;Min_cycle;Max_cycle;Signal;HPM_P1;HPM_P2
2021/06/17 00:01:21;;;;;;;0.47;0.30;;;22.80;47.10;;;;;;5018499;28;20406;-88
2021/06/17 00:03:47;;;;;;;0.25;0.25;;;22.90;46.60;;;;;;5020056;28;20148;-89
2021/06/17 00:06:13;;;;;;;0.50;0.50;;;22.80;46.50;;;;;;5028694;28;20057;-89
2021/06/17 00:08:40;;;;;;;0.30;0.25;;;22.60;46.20;;;;;;5024194;28;20064;-88
2021/06/17 00:11:06;;;;;;;0.10;0.00;;;22.40;47.20;;;;;;5032937;28;20025;-88
2021/06/17 00:13:36;;;;;;;0.75;0.40;;;22.30;46.50;;;;;;5018998;28;20056;-88
2021/06/17 00:16:05;;;;;;;0.00;0.00;;;22.20;47.20;;;;;;5028036;28;20026;-88
2021/06/17 00:18:32;;;;;;;0.20;0.20;;;21.90;51.80;;;;;;5024921;28;20082;-88
2021/06/17 00:20:59;;;;;;;0.22;0.20;;;21.10;60.30;;;;;;5015956;28;20120;-87
2021/06/17 00:23:25;;;;;;;0.22;0.10;;;20.70;62.20;;;;;;5018116;28;20713;-89
2021/06/17 00:25:51;;;;;;;0.15;0.10;;;20.70;61.70;;;;;;5024272;28;20454;-89
2021/06/17 00:28:17;;;;;;;0.00;0.00;;;20.90;58.90;;;;;;5027967;28;20040;-89
2021/06/17 00:30:44;;;;;;;0.20;0.20;;;20.90;58.50;;;;;;5018609;28;20013;-89
2021/06/17 00:33:10;;;;;;;0.05;0.05;;;21.10;56.70;;;;;;5019593;28;20041;-89
2021/06/17 00:35:36;;;;;;;0.13;0.13;;;21.30;55.20;;;;;;5015509;28;20022;-89
2021/06/17 00:38:04;;;;;;;0.10;0.10;;;21.50;55.00;;;;;;5026833;28;20203;-89
2021/06/17 00:40:31;;;;;;;0.10;0.10;;;21.20;54.90;;;;;;5023592;28;20030;-88
2021/06/17 00:42:57;;;;;;;;;;;21.30;55.30;;;;;;5011097;28;20096;-88
2021/06/17 00:45:42;;;;;;;0.45;0.45;;;21.30;55.00;;;;;;5027415;28;19917;-88
2021/06/17 00:48:09;;;;;;;0.20;0.20;;;21.50;54.40;;;;;;5012788;28;20061;-88
2021/06/17 00:50:42;;;;;;;;;;;21.30;58.00;;;;;;5026167;28;20025;-88
2021/06/17 00:53:12;;;;;;;0.38;0.38;;;20.50;66.40;;;;;;5027783;28;19959;-88
2021/06/17 00:55:43;;;;;;;0.40;0.40;;;20.60;69.00;;;;;;5022551;28;20037;-88
2021/06/17 00:58:10;;;;;;;0.22;0.20;;;20.70;71.10;;;;;;5014187;28;20502;-88
2021/06/17 01:00:36;;;;;;;0.10;0.10;;;20.80;74.60;;;;;;5022036;28;20033;-88
2021/06/17 01:03:03;;;;;;;0.10;0.10;;;20.80;74.30;;;;;;5027448;28;20054;-88
2021/06/17 01:05:29;;;;;;;0.45;0.35;;;20.60;81.90;;;;;;5024429;28;20065;-88
2021/06/17 01:08:10;;;;;;;5.10;0.57;;;20.60;85.60;;;;;;5010504;28;20508;-88
2021/06/17 01:10:41;;;;;;;1.85;1.00;;;20.40;91.50;;;;;;5022063;28;20022;-87
2021/06/17 01:13:31;;;;;;;0.10;0.10;;;20.30;93.70;;;;;;5015924;28;20041;-88
2021/06/17 01:16:15;;;;;;;0.47;0.47;;;20.20;95.80;;;;;;5026925;28;20516;-88
2021/06/17 01:18:53;;;;;;;0.77;0.43;;;20.30;94.30;;;;;;5030943;28;20041;-88
2021/06/17 01:21:55;;;;;;;0.47;0.20;;;20.20;95.20;;;;;;5046156;28;20376;-87
2021/06/17 01:24:39;;;;;;;0.15;0.13;;;20.00;98.70;;;;;;5008124;28;20038;-88
2021/06/17 01:27:25;;;;;;;0.10;0.10;;;20.00;99.80;;;;;;4995673;28;20048;-88
2021/06/17 01:29:58;;;;;;;0.00;0.00;;;19.80;99.90;;;;;;5008120;28;20849;-88
2021/06/17 01:32:26;;;;;;;0.20;0.20;;;19.70;99.90;;;;;;4997001;28;20034;-88
2021/06/17 01:34:54;;;;;;;0.00;0.00;;;19.70;99.90;;;;;;4988023;28;20037;-88
2021/06/17 01:37:24;;;;;;;0.35;0.35;;;19.70;99.90;;;;;;5001401;28;20792;-88
2021/06/17 01:39:53;;;;;;;0.10;0.10;;;19.60;99.90;;;;;;4999024;28;20030;-88
2021/06/17 01:42:23;;;;;;;0.30;0.30;;;19.70;99.90;;;;;;5009099;28;20049;-89
2021/06/17 01:44:52;;;;;;;0.22;0.10;;;19.70;99.90;;;;;;4991259;28;20033;-89
2021/06/17 01:47:18;;;;;;;0.35;0.35;;;19.70;99.90;;;;;;4989515;28;20046;-89
2021/06/17 01:49:46;;;;;;;0.20;0.20;;;19.80;99.90;;;;;;5007983;28;20033;-88
2021/06/17 01:52:11;;;;;;;0.30;0.30;;;19.70;99.90;;;;;;5009139;28;20511;-88
2021/06/17 01:54:41;;;;;;;0.55;0.32;;;19.70;99.90;;;;;;4997272;28;20073;-88
2021/06/17 01:57:08;;;;;;;0.20;0.20;;;19.80;99.90;;;;;;5001269;28;20038;-88
2021/06/17 01:59:35;;;;;;;0.77;0.68;;;19.70;99.90;;;;;;5003622;28;20033;-88
2021/06/17 02:02:02;;;;;;;0.38;0.32;;;19.50;99.90;;;;;;5024227;28;20038;-88
2021/06/17 02:04:29;;;;;;;0.20;0.20;;;19.40;99.90;;;;;;5028631;28;20045;-88
2021/06/17 02:06:57;;;;;;;0.25;0.25;;;19.30;99.90;;;;;;5040410;28;20042;-88
2021/06/17 02:09:27;;;;;;;1.20;0.55;;;19.30;99.90;;;;;;5025047;28;20068;-87
2021/06/17 02:11:53;;;;;;;0.28;0.28;;;19.40;99.90;;;;;;5028699;28;20052;-87
2021/06/17 02:14:19;;;;;;;0.68;0.50;;;19.30;99.90;;;;;;5024431;28;20064;-86
2021/06/17 02:16:46;;;;;;;0.20;0.20;;;19.30;99.90;;;;;;5029014;28;20179;-87
2021/06/17 02:19:16;;;;;;;0.65;0.40;;;19.30;99.90;;;;;;5020221;28;20070;-87
2021/06/17 02:21:44;;;;;;;0.20;0.20;;;19.30;99.90;;;;;;5045676;28;20033;-87
2021/06/17 02:24:12;;;;;;;0.52;0.20;;;19.30;99.90;;;;;;5018895;28;20038;-87
2021/06/17 02:26:43;;;;;;;0.20;0.20;;;19.40;99.90;;;;;;5021139;28;20079;-87
2021/06/17 02:29:15;;;;;;;0.73;0.40;;;19.40;99.90;;;;;;5020222;28;20120;-87
2021/06/17 02:31:43;;;;;;;0.57;0.57;;;19.20;99.90;;;;;;5020841;28;20029;-87
2021/06/17 02:34:15;;;;;;;0.22;0.22;;;19.10;99.90;;;;;;5035226;28;20029;-87
2021/06/17 02:36:42;;;;;;;0.10;0.10;;;19.40;99.90;;;;;;5026364;28;20036;-87
2021/06/17 02:39:10;;;;;;;0.55;0.45;;;19.30;99.90;;;;;;5021334;28;20503;-87
2021/06/17 02:41:43;;;;;;;2.15;0.32;;;19.50;99.90;;;;;;5030231;28;20029;-87
2021/06/17 02:44:10;;;;;;;0.65;0.35;;;19.40;99.90;;;;;;5018521;28;20105;-87
2021/06/17 02:46:36;;;;;;;0.30;0.22;;;19.60;99.90;;;;;;5017188;28;20075;-87
2021/06/17 02:49:06;;;;;;;;;;;19.60;99.90;;;;;;5019329;28;20026;-87
2021/06/17 02:51:32;;;;;;;0.28;0.28;;;19.70;99.90;;;;;;5029939;28;19920;-87
2021/06/17 02:53:58;;;;;;;0.10;0.10;;;19.60;99.90;;;;;;5020201;28;20037;-88
2021/06/17 02:57:01;;;;;;;0.50;0.50;;;19.60;99.90;;;;;;5027266;28;20112;-88
2021/06/17 02:59:38;;;;;;;32.80;2.70;;;19.60;99.90;;;;;;5026821;28;20025;-87
2021/06/17 03:02:13;;;;;;;0.30;0.30;;;19.70;99.90;;;;;;5028722;28;20488;-87
2021/06/17 03:05:04;;;;;;;0.50;0.15;;;19.80;99.90;;;;;;5034816;28;20038;-87
2021/06/17 03:07:37;;;;;;;0.13;0.13;;;19.70;99.90;;;;;;5029998;28;20079;-87
2021/06/17 03:10:07;;;;;;;0.30;0.30;;;19.60;99.90;;;;;;5023949;28;20034;-87
2021/06/17 03:12:35;;;;;;;0.40;0.40;;;19.50;99.90;;;;;;5022144;28;20076;-87
2021/06/17 03:15:06;;;;;;;0.70;0.52;;;19.40;99.90;;;;;;5018128;28;20080;-86
2021/06/17 03:17:34;;;;;;;0.55;0.55;;;19.40;99.90;;;;;;5039809;28;20029;-87
2021/06/17 03:20:04;;;;;;;7.90;0.65;;;19.40;99.90;;;;;;5008522;28;20446;-87
2021/06/17 03:22:32;;;;;;;1.67;0.63;;;19.40;99.90;;;;;;5026090;28;20041;-87
2021/06/17 03:25:04;;;;;;;1.25;0.52;;;19.30;99.90;;;;;;5020757;28;20520;-87
2021/06/17 03:27:31;;;;;;;0.10;0.10;;;19.30;99.90;;;;;;5039553;28;20021;-87
2021/06/17 03:29:59;;;;;;;0.10;0.10;;;19.30;99.90;;;;;;5014277;28;20096;-86
2021/06/17 03:32:26;;;;;;;0.55;0.52;;;19.20;99.90;;;;;;5016471;28;20398;-86
2021/06/17 03:34:53;;;;;;;0.30;0.30;;;19.20;99.90;;;;;;5035252;28;20459;-86
2021/06/17 03:37:21;;;;;;;0.10;0.10;;;19.30;99.90;;;;;;5029137;28;20065;-87
2021/06/17 03:39:48;;;;;;;0.20;0.20;;;19.20;99.90;;;;;;5023354;28;20053;-86
2021/06/17 03:42:16;;;;;;;0.30;0.30;;;19.20;99.90;;;;;;5025722;28;20029;-86
2021/06/17 03:44:43;;;;;;;0.20;0.20;;;19.20;99.90;;;;;;5026973;28;20025;-86
2021/06/17 03:47:11;;;;;;;0.38;0.38;;;19.10;99.90;;;;;;5029184;28;20108;-86
2021/06/17 03:49:39;;;;;;;1.20;0.68;;;19.00;99.90;;;;;;5025323;28;20503;-91
2021/06/17 03:52:06;;;;;;;0.38;0.20;;;19.00;99.90;;;;;;5029742;28;20025;-90
2021/06/17 03:54:33;;;;;;;0.50;0.43;;;18.90;99.90;;;;;;5028625;28;20021;-89
2021/06/17 03:57:02;;;;;;;0.30;0.30;;;18.90;99.90;;;;;;5027298;28;20175;-89
2021/06/17 03:59:36;;;;;;;1.02;0.85;;;19.00;99.90;;;;;;5033136;28;20037;-88
2021/06/17 04:02:03;;;;;;;0.20;0.20;;;19.10;99.90;;;;;;5018097;28;20030;-87
2021/06/17 04:04:30;;;;;;;0.28;0.28;;;18.90;99.90;;;;;;5013011;28;20049;-88
2021/06/17 04:06:59;;;;;;;0.22;0.22;;;18.90;99.90;;;;;;5009191;28;20167;-85
2021/06/17 04:09:32;;;;;;;0.20;0.20;;;19.10;99.90;;;;;;5029592;28;20428;-86
2021/06/17 04:12:03;;;;;;;0.50;0.50;;;19.20;99.90;;;;;;5038404;28;20184;-84
2021/06/17 04:14:31;;;;;;;0.40;0.40;;;19.50;99.90;;;;;;5020530;28;20097;-83
2021/06/17 04:16:57;;;;;;;1.23;0.65;;;19.50;99.90;;;;;;5026689;28;20507;-84
2021/06/17 04:19:27;;;;;;;0.38;0.38;;;19.50;99.90;;;;;;5028286;28;20830;-85
2021/06/17 04:22:00;;;;;;;0.55;0.43;;;19.40;99.90;;;;;;5021767;28;20495;-85
2021/06/17 04:24:29;;;;;;;1.38;1.15;;;19.60;99.90;;;;;;5039346;28;20048;-84
2021/06/17 04:26:55;;;;;;;0.20;0.20;;;19.60;99.90;;;;;;5008858;28;20033;-83
2021/06/17 04:29:22;;;;;;;0.35;0.30;;;19.60;99.90;;;;;;5012444;28;20092;-84
2021/06/17 04:31:50;;;;;;;0.40;0.40;;;19.50;99.90;;;;;;5027269;28;20851;-85
2021/06/17 04:34:17;;;;;;;0.50;0.45;;;19.70;99.40;;;;;;5015305;28;20053;-86
2021/06/17 04:36:44;;;;;;;0.68;0.55;;;19.90;96.00;;;;;;5014529;28;21041;-84
2021/06/17 04:39:10;;;;;;;0.57;0.57;;;20.30;93.40;;;;;;5028415;28;20380;-86
2021/06/17 04:41:37;;;;;;;0.30;0.30;;;20.20;93.40;;;;;;5023998;28;20025;-88
2021/06/17 04:44:04;;;;;;;0.35;0.35;;;20.30;92.20;;;;;;5008600;28;20032;-88
2021/06/17 04:46:30;;;;;;;;;;;20.50;91.50;;;;;;5011030;28;20033;-88
2021/06/17 04:48:56;;;;;;;;;;;20.60;90.60;;;;;;5012974;28;19988;-89
2021/06/17 04:51:24;;;;;;;0.22;0.22;;;20.70;90.50;;;;;;5027369;28;20398;-88
2021/06/17 04:53:52;;;;;;;0.10;0.10;;;20.80;90.00;;;;;;5027375;28;20037;-89
2021/06/17 04:56:19;;;;;;;0.10;0.10;;;20.90;89.20;;;;;;5026968;28;20112;-92
2021/06/17 04:58:47;;;;;;;0.43;0.43;;;20.80;89.00;;;;;;5018606;28;20068;-93
2021/06/17 05:01:16;;;;;;;0.77;0.70;;;20.90;88.80;;;;;;5037023;28;20057;-91
2021/06/17 05:03:42;;;;;;;0.20;0.20;;;20.90;89.00;;;;;;5026428;28;20048;-90
2021/06/17 05:06:09;;;;;;;0.17;0.17;;;20.90;88.90;;;;;;5025841;28;20576;-90
2021/06/17 05:11:21;;;;;;;0.37;0.37;;;21.10;90.00;;;;;;5028274;28;20025;-89
2021/06/17 05:13:47;;;;;;;0.20;0.20;;;21.20;87.90;;;;;;5026571;28;20105;-90
2021/06/17 05:16:13;;;;;;;0.43;0.10;;;21.10;87.90;;;;;;5027130;28;20128;-88
2021/06/17 05:18:39;;;;;;;1.20;0.82;;;21.10;88.60;;;;;;5040737;28;20029;-89
2021/06/17 05:21:07;;;;;;;0.40;0.40;;;21.00;89.70;;;;;;5019463;28;20037;-89
2021/06/17 05:23:34;;;;;;;0.10;0.10;;;20.90;90.10;;;;;;5027603;28;20422;-90
2021/06/17 05:26:01;;;;;;;0.95;0.40;;;21.00;90.10;;;;;;5025138;28;20028;-89
2021/06/17 05:28:28;;;;;;;0.68;0.28;;;21.00;90.60;;;;;;5021776;28;20054;-90
2021/06/17 05:31:00;;;;;;;0.30;0.30;;;21.10;90.10;;;;;;5011558;28;20026;-90
2021/06/17 05:33:27;;;;;;;0.52;0.40;;;21.20;90.10;;;;;;5028425;28;20509;-91
2021/06/17 05:35:53;;;;;;;0.50;0.50;;;21.20;90.10;;;;;;5019263;28;20025;-93
2021/06/17 05:38:21;;;;;;;0.77;0.55;;;21.40;90.00;;;;;;5037694;28;20156;-94
2021/06/17 05:40:47;;;;;;;0.20;0.20;;;21.40;88.00;;;;;;5033971;28;20032;-93
2021/06/17 05:43:13;;;;;;;0.00;0.00;;;21.30;88.90;;;;;;5034171;28;20053;-93
2021/06/17 05:45:39;;;;;;;0.65;0.65;;;21.20;90.90;;;;;;5033892;28;20060;-90
2021/06/17 05:48:06;;;;;;;0.88;0.63;;;21.20;90.60;;;;;;5032816;28;20467;-89
2021/06/17 05:50:32;;;;;;;0.20;0.20;;;21.20;90.50;;;;;;5030182;28;20108;-89
2021/06/17 05:52:58;;;;;;;0.20;0.15;;;21.20;90.10;;;;;;5036975;28;20064;-91
2021/06/17 05:55:24;;;;;;;0.10;0.10;;;21.30;90.70;;;;;;5024914;28;20092;-89
2021/06/17 05:57:49;;;;;;;0.13;0.13;;;21.30;90.50;;;;;;5030771;28;20079;-90
2021/06/17 06:00:16;;;;;;;0.20;0.20;;;21.50;90.20;;;;;;5033601;28;20025;-90
2021/06/17 06:02:42;;;;;;;;;;;21.50;90.30;;;;;;5033820;28;20064;-91
2021/06/17 06:05:08;;;;;;;1.48;1.35;;;21.70;88.40;;;;;;5049732;28;19917;-91
2021/06/17 06:07:34;;;;;;;0.03;0.03;;;21.60;89.80;;;;;;5033521;28;20029;-92
2021/06/17 06:10:00;;;;;;;0.05;0.05;;;21.80;88.00;;;;;;5028855;28;20022;-91
2021/06/17 06:12:26;;;;;;;1.17;0.95;;;22.30;87.30;;;;;;5029547;28;20117;-92
2021/06/17 06:14:52;;;;;;;0.00;0.00;;;22.60;85.50;;;;;;5029554;28;20029;-91
2021/06/17 06:17:19;;;;;;;0.17;0.17;;;22.70;83.60;;;;;;5029871;28;20034;-92
2021/06/17 06:19:44;;;;;;;;;;;22.80;83.00;;;;;;5030155;28;20033;-91
2021/06/17 06:22:10;;;;;;;0.22;0.22;;;23.10;83.50;;;;;;5013384;28;20428;-92
2021/06/17 06:24:37;;;;;;;1.30;0.20;;;23.40;81.00;;;;;;5029867;28;20566;-92
2021/06/17 06:27:07;;;;;;;0.20;0.20;;;23.20;79.00;;;;;;5029867;28;20025;-92
2021/06/17 06:29:33;;;;;;;0.10;0.10;;;23.00;79.70;;;;;;5029855;28;20118;-91
2021/06/17 06:32:00;;;;;;;0.77;0.45;;;23.00;79.80;;;;;;5029586;28;20022;-92
2021/06/17 06:34:26;;;;;;;0.65;0.50;;;23.00;80.50;;;;;;5029695;28;20044;-93
2021/06/17 06:36:53;;;;;;;0.63;0.63;;;23.10;79.30;;;;;;5030586;28;20048;-92
2021/06/17 06:39:19;;;;;;;0.73;0.73;;;23.10;79.60;;;;;;5029884;28;20033;-91
2021/06/17 06:41:45;;;;;;;;;;;23.20;79.50;;;;;;5045250;28;20022;-91
2021/06/17 06:44:12;;;;;;;0.38;0.13;;;23.70;77.40;;;;;;5030963;28;19909;-93
2021/06/17 06:46:38;;;;;;;;;;;23.80;76.00;;;;;;5018794;28;20029;-92
2021/06/17 06:49:04;;;;;;;0.30;0.30;;;23.70;75.80;;;;;;5012670;28;19905;-91
2021/06/17 06:51:44;;;;;;;0.82;0.40;;;23.70;74.90;;;;;;5029251;28;20413;-91
2021/06/17 06:54:10;;;;;;;0.10;0.10;;;24.00;73.80;;;;;;5012623;28;20120;-91
2021/06/17 06:56:37;;;;;;;0.20;0.20;;;24.10;73.20;;;;;;5029619;28;20483;-90
2021/06/17 06:59:04;;;;;;;0.52;0.52;;;25.00;70.40;;;;;;5029178;28;20037;-90
2021/06/17 07:01:30;;;;;;;0.17;0.10;;;24.50;70.50;;;;;;5029270;28;20029;-91
2021/06/17 07:03:56;;;;;;;0.22;0.22;;;25.70;67.50;;;;;;5029596;28;20053;-91
2021/06/17 07:06:22;;;;;;;0.35;0.35;;;25.40;65.50;;;;;;5029388;28;20030;-93
2021/06/17 07:08:48;;;;;;;0.20;0.20;;;25.90;65.10;;;;;;5029014;28;20026;-92
2021/06/17 07:11:13;;;;;;;0.52;0.52;;;27.60;59.90;;;;;;5022599;28;20106;-92
2021/06/17 07:13:39;;;;;;;0.90;0.43;;;27.30;57.60;;;;;;5029371;28;20025;-94
2021/06/17 07:16:06;;;;;;;0.17;0.17;;;28.10;65.80;;;;;;5026745;28;20054;-92
2021/06/17 07:18:32;;;;;;;;;;;26.30;54.60;;;;;;5028028;28;20034;-94
2021/06/17 07:20:57;;;;;;;1.85;0.82;;;27.00;56.40;;;;;;5011637;28;19960;-93
2021/06/17 07:23:27;;;;;;;0.10;0.10;;;27.30;52.90;;;;;;5027462;28;20609;-92
2021/06/17 07:25:53;;;;;;;0.38;0.30;;;28.10;53.70;;;;;;5027110;28;20030;-90
2021/06/17 07:28:18;;;;;;;;;;;28.00;52.70;;;;;;5012609;28;20026;-92
2021/06/17 07:30:44;;;;;;;0.45;0.20;;;26.90;54.90;;;;;;5010736;28;19916;-92
2021/06/17 07:33:10;;;;;;;0.30;0.30;;;25.90;54.70;;;;;;5027860;28;20030;-91
2021/06/17 07:35:36;;;;;;;0.55;0.47;;;25.30;56.70;;;;;;5027224;28;20037;-92
2021/06/17 07:38:02;;;;;;;0.20;0.20;;;25.40;56.90;;;;;;5027579;28;20040;-92
2021/06/17 07:40:28;;;;;;;0.20;0.20;;;25.20;56.20;;;;;;5026820;28;20137;-92
2021/06/17 07:42:54;;;;;;;0.20;0.20;;;24.90;57.10;;;;;;5026952;28;20034;-92
2021/06/17 07:45:20;;;;;;;0.10;0.10;;;24.30;58.40;;;;;;5026576;28;20518;-93
2021/06/17 07:47:46;;;;;;;0.00;0.00;;;24.90;59.30;;;;;;5026391;28;20506;-91
2021/06/17 07:50:13;;;;;;;0.17;0.17;;;24.90;56.30;;;;;;5026570;28;20049;-91
2021/06/17 07:52:39;;;;;;;5.80;0.45;;;24.60;57.10;;;;;;5025917;28;20034;-91
2021/06/17 07:55:07;;;;;;;0.00;0.00;;;24.70;57.20;;;;;;5026867;28;20048;-91
2021/06/17 07:57:33;;;;;;;0.35;0.17;;;24.30;58.90;;;;;;5010809;28;20037;-92
2021/06/17 07:59:58;;;;;;;0.20;0.20;;;24.40;58.80;;;;;;5025688;28;21144;-91
2021/06/17 08:02:26;;;;;;;0.30;0.30;;;24.20;59.60;;;;;;5025757;28;20037;-92
2021/06/17 08:04:52;;;;;;;0.10;0.10;;;24.50;58.50;;;;;;5025747;28;20056;-92
2021/06/17 08:07:18;;;;;;;0.30;0.30;;;24.50;58.10;;;;;;5026088;28;20116;-91
2021/06/17 08:09:44;;;;;;;0.25;0.15;;;24.70;57.40;;;;;;5025130;28;20582;-91
2021/06/17 08:12:10;;;;;;;0.10;0.10;;;24.30;58.20;;;;;;5024789;28;20026;-91
2021/06/17 08:14:36;;;;;;;0.38;0.38;;;24.40;58.30;;;;;;5024949;28;20077;-91
2021/06/17 08:17:02;;;;;;;0.25;0.10;;;24.60;59.30;;;;;;5025588;28;20479;-92
2021/06/17 08:19:31;;;;;;;1.35;0.45;;;25.10;57.20;;;;;;5026160;28;20034;-93
2021/06/17 08:21:59;;;;;;;10.65;0.40;;;25.10;70.80;;;;;;5013307;28;20028;-92
2021/06/17 08:24:25;;;;;;;0.38;0.22;;;25.00;57.40;;;;;;5030314;28;20029;-92
2021/06/17 08:26:51;;;;;;;0.60;0.55;;;24.70;57.80;;;;;;5029839;28;20030;-92
2021/06/17 08:29:17;;;;;;;0.73;0.28;;;24.50;58.10;;;;;;5030135;28;20456;-92
2021/06/17 08:31:43;;;;;;;0.82;0.32;;;24.60;57.30;;;;;;5030050;28;20065;-92
2021/06/17 08:34:10;;;;;;;0.45;0.30;;;24.40;57.60;;;;;;5014479;28;20786;-92
2021/06/17 08:36:37;;;;;;;0.43;0.30;;;24.00;99.90;;;;;;5029678;28;20034;-93
2021/06/17 08:39:04;;;;;;;0.40;0.32;;;24.80;64.90;;;;;;5029650;28;20114;-92
2021/06/17 08:41:32;;;;;;;0.68;0.68;;;24.90;62.30;;;;;;5029575;28;20030;-92
2021/06/17 08:43:57;;;;;;;0.28;0.28;;;24.50;61.30;;;;;;5028928;28;20096;-91
2021/06/17 08:46:23;;;;;;;0.70;0.47;;;24.80;62.00;;;;;;5029575;28;20121;-91
2021/06/17 08:48:50;;;;;;;0.50;0.28;;;24.90;58.90;;;;;;5029423;28;20034;-92
2021/06/17 08:51:20;;;;;;;0.10;0.10;;;25.60;59.10;;;;;;5029402;28;20057;-91
2021/06/17 08:53:49;;;;;;;0.30;0.20;;;26.00;57.20;;;;;;5029383;28;20159;-92
2021/06/17 08:56:15;;;;;;;0.40;0.25;;;27.40;54.10;;;;;;5029217;28;20026;-92
2021/06/17 08:58:41;;;;;;;0.30;0.28;;;28.00;51.40;;;;;;5029462;28;20030;-91
2021/06/17 09:01:12;;;;;;;0.55;0.55;;;29.00;48.40;;;;;;5013548;28;20711;-91
2021/06/17 09:03:42;;;;;;;0.10;0.10;;;30.80;42.20;;;;;;5029053;28;20066;-91
2021/06/17 09:06:08;;;;;;;0.00;0.00;;;30.50;43.50;;;;;;5028623;28;20036;-93
2021/06/17 09:08:36;;;;;;;0.15;0.08;;;29.70;43.00;;;;;;5012420;28;20499;-92
2021/06/17 09:11:17;;;;;;;0.10;0.10;;;28.90;43.40;;;;;;5028698;28;20024;-92
2021/06/17 09:13:42;;;;;;;0.35;0.35;;;28.70;42.90;;;;;;5028592;28;20037;-92
2021/06/17 09:16:08;;;;;;;0.30;0.10;;;29.10;42.50;;;;;;5028179;28;20387;-92
2021/06/17 09:18:35;;;;;;;0.13;0.13;;;28.80;40.00;;;;;;5028397;28;20080;-92
2021/06/17 09:21:09;;;;;;;0.10;0.10;;;30.00;39.80;;;;;;5028171;28;20399;-91
2021/06/17 09:23:43;;;;;;;0.20;0.20;;;30.70;36.30;;;;;;5028595;28;20461;-91
2021/06/17 09:26:23;;;;;;;0.10;0.08;;;29.80;35.60;;;;;;5028004;28;20036;-91
2021/06/17 09:29:05;;;;;;;0.35;0.25;;;29.50;37.60;;;;;;5028270;28;20037;-92
2021/06/17 09:31:42;;;;;;;0.25;0.10;;;29.10;37.00;;;;;;5013369;28;20552;-92
2021/06/17 09:34:10;;;;;;;0.73;0.30;;;28.60;38.10;;;;;;5028833;28;20034;-92
2021/06/17 09:36:39;;;;;;;0.10;0.10;;;28.60;37.90;;;;;;5028727;28;20080;-92
2021/06/17 09:39:15;;;;;;;0.10;0.10;;;28.60;38.40;;;;;;5012263;28;20431;-93
2021/06/17 09:41:46;;;;;;;0.13;0.13;;;28.20;39.60;;;;;;5028968;28;20076;-91
2021/06/17 09:44:37;;;;;;;0.25;0.25;;;27.60;40.70;;;;;;5028222;28;20040;-91
2021/06/17 09:47:22;;;;;;;0.40;0.20;;;28.30;39.00;;;;;;5028902;28;20026;-92
2021/06/17 09:49:48;;;;;;;0.10;0.10;;;26.80;41.40;;;;;;5028655;28;20034;-91
2021/06/17 09:52:18;;;;;;;0.10;0.10;;;27.00;41.70;;;;;;5031053;28;20025;-91
2021/06/17 09:54:44;;;;;;;0.13;0.13;;;26.30;44.50;;;;;;5031186;28;20036;-91
2021/06/17 09:57:15;;;;;;;0.50;0.50;;;27.40;41.60;;;;;;5031552;28;20025;-92
2021/06/17 09:59:45;;;;;;;0.20;0.20;;;26.60;42.80;;;;;;5031574;28;20495;-92
2021/06/17 10:02:24;;;;;;;0.32;0.32;;;27.40;41.00;;;;;;5048315;28;20021;-92
2021/06/17 10:05:07;;;;;;;0.45;0.35;;;27.40;43.60;;;;;;5047858;28;20041;-93
2021/06/17 10:07:33;;;;;;;0.10;0.10;;;27.70;39.40;;;;;;5047793;28;20037;-92
2021/06/17 10:09:59;;;;;;;;;;;27.40;39.20;;;;;;5048761;28;20036;-92
2021/06/17 10:12:25;;;;;;;0.25;0.20;;;27.90;50.90;;;;;;5031035;28;19913;-92
2021/06/17 10:14:51;;;;;;;0.30;0.30;;;28.10;38.60;;;;;;5048182;28;20026;-92
2021/06/17 10:17:18;;;;;;;0.52;0.35;;;27.30;38.90;;;;;;5047789;28;20819;-92
2021/06/17 10:19:45;;;;;;;0.43;0.30;;;27.30;38.90;;;;;;5047777;28;20030;-92
2021/06/17 10:22:11;;;;;;;0.30;0.20;;;27.30;39.50;;;;;;5047613;28;20025;-92
2021/06/17 10:24:39;;;;;;;0.13;0.10;;;27.20;39.60;;;;;;5046736;28;20037;-92
2021/06/17 10:27:11;;;;;;;0.10;0.10;;;27.10;40.00;;;;;;5047047;28;20108;-92
2021/06/17 10:29:40;;;;;;;0.10;0.10;;;27.50;40.30;;;;;;5047098;28;20033;-92
2021/06/17 10:32:16;;;;;;;0.20;0.15;;;27.70;40.00;;;;;;5047480;28;20027;-93
2021/06/17 10:34:53;;;;;;;0.20;0.20;;;28.50;37.90;;;;;;5047569;28;20029;-92
2021/06/17 10:37:47;;;;;;;0.38;0.38;;;30.50;35.60;;;;;;5031388;28;20041;-93
2021/06/17 10:40:13;;;;;;;0.40;0.40;;;31.50;33.00;;;;;;5047269;28;20038;-92
2021/06/17 10:42:48;;;;;;;0.17;0.17;;;32.10;26.60;;;;;;5046907;28;20041;-93
2021/06/17 10:45:27;;;;;;;0.63;0.55;;;33.00;26.70;;;;;;5046731;28;20112;-91
2021/06/17 10:47:57;;;;;;;0.40;0.30;;;31.20;26.40;;;;;;5046683;28;20021;-92
2021/06/17 10:50:42;;;;;;;0.22;0.22;;;29.10;31.20;;;;;;5046860;28;20025;-92
2021/06/17 10:53:14;;;;;;;;;;;28.10;34.60;;;;;;5047360;28;20026;-92
2021/06/17 10:56:04;;;;;;;0.70;0.47;;;28.30;33.50;;;;;;5029897;28;20063;-92
2021/06/17 10:58:44;;;;;;;0.60;0.60;;;28.80;32.80;;;;;;5046562;28;20521;-92
2021/06/17 11:01:22;;;;;;;0.20;0.20;;;28.70;32.10;;;;;;5046234;28;20495;-90
2021/06/17 11:04:02;;;;;;;0.10;0.10;;;27.00;34.10;;;;;;5046091;28;20759;-92
2021/06/17 11:06:53;;;;;;;0.15;0.15;;;26.60;37.50;;;;;;5029572;28;20029;-93
2021/06/17 11:09:34;;;;;;;0.30;0.22;;;26.90;37.00;;;;;;5045826;28;20054;-91
2021/06/17 11:12:22;;;;;;;0.10;0.10;;;27.30;44.60;;;;;;5045199;28;20033;-92
2021/06/17 11:14:57;;;;;;;0.10;0.10;;;27.80;38.00;;;;;;5045145;28;20031;-91
2021/06/17 11:17:29;;;;;;;0.15;0.13;;;27.80;35.90;;;;;;5045698;28;20037;-91
2021/06/17 11:20:07;;;;;;;0.30;0.20;;;28.00;35.70;;;;;;5045357;28;20087;-92
2021/06/17 11:22:44;;;;;;;0.40;0.40;;;28.30;33.90;;;;;;5045358;28;20116;-91
2021/06/17 11:25:16;;;;;;;0.40;0.40;;;27.40;35.60;;;;;;5045153;28;20027;-91
2021/06/17 11:28:12;;;;;;;0.10;0.10;;;26.80;36.90;;;;;;5046547;28;20026;-92
2021/06/17 11:30:38;;;;;;;0.38;0.35;;;27.40;36.80;;;;;;5046346;28;20025;-91
2021/06/17 11:33:16;;;;;;;0.03;0.03;;;27.80;50.80;;;;;;5045757;28;20722;-92
2021/06/17 11:35:43;;;;;;;0.38;0.38;;;28.10;36.80;;;;;;5046071;28;20030;-93
2021/06/17 11:38:09;;;;;;;0.20;0.20;;;28.20;37.00;;;;;;5045705;28;20506;-92
2021/06/17 11:40:35;;;;;;;0.08;0.08;;;28.40;34.40;;;;;;5046289;28;20025;-92
2021/06/17 11:43:01;;;;;;;0.08;0.08;;;27.90;33.80;;;;;;5045538;28;20567;-91
2021/06/17 11:45:36;;;;;;;0.43;0.43;;;27.10;36.50;;;;;;5045564;28;20018;-92
2021/06/17 11:48:06;;;;;;;0.20;0.20;;;27.00;37.00;;;;;;5045647;28;20513;-91
2021/06/17 11:50:31;;;;;;;0.68;0.43;;;26.90;37.80;;;;;;5046078;28;20499;-92
2021/06/17 11:52:58;;;;;;;0.50;0.50;;;26.60;39.30;;;;;;5045868;28;20114;-92
2021/06/17 11:55:25;;;;;;;0.30;0.30;;;27.20;38.00;;;;;;5045883;28;20037;-92
2021/06/17 11:57:52;;;;;;;0.30;0.30;;;27.40;36.70;;;;;;5045991;28;20033;-92
2021/06/17 12:00:29;;;;;;;;;;;28.10;36.60;;;;;;5029638;28;20123;-91
2021/06/17 12:02:55;;;;;;;0.45;0.45;;;28.00;35.90;;;;;;5028732;28;19952;-92
2021/06/17 12:05:23;;;;;;;0.60;0.43;;;28.30;36.40;;;;;;5028614;28;20045;-93
2021/06/17 12:07:49;;;;;;;0.60;0.43;;;28.40;35.40;;;;;;5028820;28;20030;-92
2021/06/17 12:10:20;;;;;;;;;;;28.60;33.30;;;;;;5028914;28;20514;-92
2021/06/17 12:12:51;;;;;;;0.60;0.43;;;28.70;33.80;;;;;;5028807;28;19905;-92
2021/06/17 12:15:36;;;;;;;0.10;0.10;;;27.70;35.30;;;;;;5028452;28;20112;-91
2021/06/17 12:18:13;;;;;;;0.25;0.20;;;27.40;35.80;;;;;;5028459;28;20022;-91
2021/06/17 12:20:41;;;;;;;0.10;0.10;;;26.70;37.20;;;;;;5028580;28;20119;-93
2021/06/17 12:23:17;;;;;;;1.00;0.85;;;26.70;38.30;;;;;;5028714;28;20034;-92
2021/06/17 12:25:56;;;;;;;0.63;0.63;;;26.80;38.10;;;;;;5028790;28;20525;-92
2021/06/17 12:28:22;;;;;;;0.05;0.05;;;25.90;40.00;;;;;;5028608;28;20667;-93
2021/06/17 12:30:50;;;;;;;0.08;0.08;;;25.80;40.50;;;;;;5028783;28;20076;-92
2021/06/17 12:33:19;;;;;;;0.20;0.20;;;25.70;41.00;;;;;;5028328;28;20632;-92
2021/06/17 12:35:49;;;;;;;0.43;0.43;;;25.90;40.40;;;;;;5045311;28;20107;-93
2021/06/17 12:38:26;;;;;;;0.75;0.35;;;25.70;41.30;;;;;;5045246;28;20425;-92
2021/06/17 12:40:52;;;;;;;0.30;0.30;;;26.00;41.80;;;;;;5044865;28;20029;-91
2021/06/17 12:43:23;;;;;;;;;;;25.90;40.50;;;;;;5028516;28;20035;-92
2021/06/17 12:46:06;;;;;;;0.63;0.40;;;25.70;41.80;;;;;;5029008;28;19905;-91
2021/06/17 12:54:00;;;;;;;0.40;0.30;;;25.50;42.90;;;;;;5030081;28;20116;-92
2021/06/17 12:56:27;;;;;;;0.32;0.30;;;25.40;43.70;;;;;;5028456;28;20702;-93
2021/06/17 12:58:53;;;;;;;0.60;0.60;;;25.10;43.20;;;;;;5028651;28;20041;-91
2021/06/17 13:01:22;;;;;;;0.20;0.20;;;25.20;43.60;;;;;;5028401;28;20126;-92
2021/06/17 13:03:50;;;;;;;1.02;0.38;;;25.30;43.20;;;;;;5027814;28;20045;-91
2021/06/17 13:06:35;;;;;;;1.05;0.85;;;25.00;56.10;;;;;;5027956;28;20018;-91
2021/06/17 13:09:01;;;;;;;0.68;0.35;;;25.00;44.10;;;;;;5031442;28;20115;-91
2021/06/17 13:11:32;;;;;;;0.45;0.40;;;24.70;44.40;;;;;;5031057;28;20116;-92